Wednesday, September 28, 2016, 6:09 AM EDT

KPHF, Williamsburg International Airport

Location: Newport News, VA, United States Lat: 37.133
Local Time: 6:09 AM EDT (10:09 GMT) Lon: -76.5
Time Zone: US/Eastern Elev: 42 ft

Show me the last for .
Show Decoded

2016-09-28 05:58 METAR KPHF 280958Z 00000KT 3/4SM BR FEW003 SCT100 19/19 A2992 RMK AO2 T01940189
                 =
2016-09-28 05:54 METAR KPHF 280954Z 00000KT 2 1/2SM BR FEW003 19/19 A2993 RMK AO2 SLP133
                 T01890189 =
2016-09-28 05:50 METAR KPHF 280950Z 00000KT 4SM BR FEW003 19/19 A2993 RMK AO2 =
2016-09-28 05:43 METAR KPHF 280943Z 00000KT 2 1/2SM BR FEW004 19/19 A2993 RMK AO2 VIS 1 3/4V3
                 T01940189 =
2016-09-28 05:01 METAR KPHF 280901Z 00000KT 3SM BR BKN039 20/19 A2993 RMK AO2 T02000194 =
2016-09-28 04:54 METAR KPHF 280854Z 00000KT 1 1/2SM BR SCT041 19/19 A2993 RMK AO2 VIS 3/4V5
                 SLP135 T01940189 55001 =
2016-09-28 04:47 METAR KPHF 280847Z 00000KT 2 1/2SM BR SCT043 19/19 A2993 RMK AO2 VIS 1V5
                 T01940189 =
2016-09-28 04:19 METAR KPHF 280819Z 00000KT 3SM BR FEW004 SCT040 BKN047 19/19 A2993 RMK AO2
                 T01940189 =
2016-09-28 04:15 METAR KPHF 280815Z 00000KT 1 1/4SM BR FEW004 BKN040 BKN047 19/19 A2993 RMK AO2
                 T01940189 =
2016-09-28 04:08 METAR KPHF 280808Z 00000KT 2SM BR FEW004 FEW040 19/19 A2993 RMK AO2 T01940189 =
2016-09-28 03:54 METAR KPHF 280754Z 00000KT 3SM BR FEW038 SCT046 19/19 A2992 RMK AO2 SLP132
                 T01940189 =
2016-09-28 02:54 METAR KPHF 280654Z 00000KT 5SM BR OVC042 20/20 A2993 RMK AO2 SLP133 T02000200 =
2016-09-28 01:54 METAR KPHF 280554Z 00000KT 6SM BR BKN041 19/18 A2994 RMK AO2 SLP136 T01890183
                 10222 20183 51006 =
2016-09-28 01:42 METAR KPHF 280542Z 00000KT 3SM BR FEW041 19/18 A2993 RMK AO2 T01890183 =
2016-09-28 01:19 METAR KPHF 280519Z 00000KT 2 1/2SM BR FEW010 18/18 A2993 RMK AO2 T01830183 =
2016-09-28 01:09 METAR KPHF 280509Z 00000KT 1 1/4SM BR FEW010 19/19 A2993 RMK AO2 T01890189 =
2016-09-28 00:54 METAR KPHF 280454Z 00000KT 1/2SM FG VV010 19/18 A2993 RMK AO2 SLP135 T01890183
                 402500189 =
2016-09-28 00:38 METAR KPHF 280438Z 00000KT 3/4SM BR VV010 19/19 A2993 RMK AO2 T01890189 =
2016-09-28 00:34 METAR KPHF 280434Z 00000KT 1 1/2SM BR SCT008 19/19 A2993 RMK AO2 T01890189 =
2016-09-28 00:30 METAR KPHF 280430Z 00000KT 3SM BR SCT008 19/18 A2993 RMK AO2 T01890183 =
2016-09-28 00:26 METAR KPHF 280426Z 00000KT 1SM BR VV008 19/18 A2993 RMK AO2 T01890183 =
2016-09-27 23:54 METAR KPHF 280354Z 00000KT 1/4SM FG BKN005 BKN039 19/19 A2993 RMK AO2 SLP133
                 T01940189 =
2016-09-27 23:43 METAR KPHF 280343Z 00000KT 1/4SM FG VV009 19/19 A2992 RMK AO2 T01940189 =
2016-09-27 23:37 METAR KPHF 280337Z 00000KT 1/2SM FG VV011 19/19 A2992 RMK AO2 T01940189 =
2016-09-27 23:30 METAR KPHF 280330Z 00000KT 1 3/4SM BR CLR 19/19 A2992 RMK AO2 T01940189 =
2016-09-27 23:20 METAR KPHF 280320Z 00000KT 4SM BR CLR 19/19 A2992 RMK AO2 T01940189 =
2016-09-27 23:10 METAR KPHF 280310Z 00000KT 2SM BR CLR 19/19 A2992 RMK AO2 T01940189 =
2016-09-27 22:54 METAR KPHF 280254Z 00000KT 4SM BR CLR 20/19 A2992 RMK AO2 SLP130 T02000194 53003
                 =
2016-09-27 21:54 METAR KPHF 280154Z 00000KT 7SM CLR 21/20 A2991 RMK AO2 SLP128 T02060200 =
2016-09-27 20:54 METAR KPHF 280054Z 00000KT 10SM OVC100 22/21 A2991 RMK AO2 SLP128 T02220206 =
2016-09-27 19:54 METAR KPHF 272354Z 10004KT 8SM FEW047 OVC090 22/21 A2991 RMK AO2 SLP127 60002
                 T02170211 10239 20217 53002 =
2016-09-27 18:54 METAR KPHF 272254Z 02003KT 8SM SCT016 BKN050 OVC080 23/21 A2990 RMK AO2 SLP125
                 T02280211 =
2016-09-27 18:40 METAR KPHF 272240Z 02003KT 8SM BKN016 BKN065 OVC080 23/21 A2990 RMK AO2
                 T02280211 =
2016-09-27 17:54 METAR KPHF 272154Z 00000KT 10SM BKN060 BKN085 24/21 A2990 RMK AO2 SLP125
                 T02390206 =
2016-09-27 16:54 METAR KPHF 272054Z 13004KT 9SM FEW008 FEW070 23/21 A2990 RMK AO2 RAE08 SLP125
                 P0000 60002 T02330211 56010 =
2016-09-27 16:38 METAR KPHF 272038Z 10005KT 8SM FEW007 23/21 A2990 RMK AO2 RAE08 P0000 T02280211
                 =
2016-09-27 15:54 METAR KPHF 271954Z 11004KT 9SM -RA FEW026 SCT045 BKN110 23/21 A2990 RMK AO2
                 SLP126 P0001 T02280206 =
2016-09-27 14:54 METAR KPHF 271854Z 00000KT 7SM -RA OVC110 23/21 A2991 RMK AO2 RAB04 SLP127 P0001
                 T02280206 =
2016-09-27 13:54 METAR KPHF 271754Z 32004KT 10SM FEW022 BKN075 OVC110 23/20 A2993 RMK AO2 SLP135
                 T02330200 10250 20217 58017 =
2016-09-27 12:54 METAR KPHF 271654Z VRB03KT 10SM FEW037 SCT110 24/19 A2995 RMK AO2 SLP141
                 T02440194 =
2016-09-27 12:36 METAR KPHF 271636Z 31004KT 10SM FEW018 BKN037 24/20 A2996 RMK AO2 T02390200 =
2016-09-27 12:28 METAR KPHF 271628Z 28004KT 10SM BKN018 BKN037 24/20 A2996 RMK AO2 T02390200 =
2016-09-27 12:19 METAR KPHF 271619Z 34004KT 10SM SCT018 BKN041 24/19 A2996 RMK AO2 T02390194 =
2016-09-27 12:10 METAR KPHF 271610Z 31004KT 10SM BKN019 BKN041 24/19 A2996 RMK AO2 T02390194 =
2016-09-27 11:54 METAR KPHF 271554Z 26005KT 10SM FEW016 BKN041 24/19 A2997 RMK AO2 SLP148
                 T02390194 =
2016-09-27 10:54 METAR KPHF 271454Z 24004KT 10SM SCT050 23/19 A2998 RMK AO2 SLP152 T02330194
                 53003 =
2016-09-27 09:54 METAR KPHF 271354Z 26005KT 10SM FEW033 BKN060 OVC080 22/20 A2998 RMK AO2 SLP151
                 T02220200 =
2016-09-27 08:54 METAR KPHF 271254Z 23005KT 10SM FEW049 FEW065 22/19 A2997 RMK AO2 SLP147
                 T02220194 =
2016-09-27 07:54 METAR KPHF 271154Z 24006KT 10SM SCT047 BKN065 22/19 A2997 RMK AO2 SLP149 60000
                 T02170194 10228 20217 53007 =
2016-09-27 06:54 METAR KPHF 271054Z 22006KT 10SM OVC044 22/20 A2996 RMK AO2 RAB27E40 SLP145 P0000
                 T02170200 =

Support USWX by starting your Amazon purchase here.